Time;durP1;ratioP1;P1;durP2;ratioP2;P2;SDS_P1;SDS_P2;PMS_P1;PMS_P2;Temp;Humidity;BMP_temperature;BMP_pressure;BME280_temperature;BME280_humidity;BME280_pressure;Samples;Min_cycle;Max_cycle;Signal;HPM_P1;HPM_P2
2022/11/14 00:00:35;;;;;;;51.95;22.75;;;;;;;;;;5114005;28;20108;-67
2022/11/14 00:03:04;;;;;;;51.92;22.13;;;6.70;99.90;;;;;;5114663;28;20083;-66
2022/11/14 00:05:30;;;;;;;47.80;22.23;;;6.80;99.90;;;;;;5114635;28;20091;-67
2022/11/14 00:07:56;;;;;;;42.95;21.50;;;6.80;99.90;;;;;;5114387;28;20083;-67
2022/11/14 00:10:22;;;;;;;48.63;22.95;;;6.70;99.90;;;;;;5113528;28;20086;-66
2022/11/14 00:12:47;;;;;;;48.38;22.85;;;6.60;99.90;;;;;;5114532;27;20051;-67
2022/11/14 00:15:14;;;;;;;46.30;21.75;;;6.90;99.90;;;;;;5114425;27;20116;-67
2022/11/14 00:17:40;;;;;;;42.97;21.63;;;;;;;;;;5114366;28;20047;-67
2022/11/14 00:20:07;;;;;;;46.08;21.77;;;6.50;99.90;;;;;;5114330;28;20183;-66
2022/11/14 00:22:34;;;;;;;46.97;21.13;;;6.70;99.90;;;;;;5114096;28;20051;-67
2022/11/14 00:24:59;;;;;;;45.30;21.55;;;6.80;99.90;;;;;;5113271;28;20087;-67
2022/11/14 00:27:25;;;;;;;47.40;21.77;;;6.70;99.90;;;;;;5113006;28;20082;-66
2022/11/14 00:29:51;;;;;;;43.53;20.05;;;6.80;99.90;;;;;;5114230;28;20130;-67
2022/11/14 00:32:17;;;;;;;42.58;22.13;;;6.90;99.90;;;;;;5112863;28;20131;-66
2022/11/14 00:34:42;;;;;;;44.97;20.80;;;7.00;99.90;;;;;;5114055;28;20070;-67
2022/11/14 00:37:08;;;;;;;41.70;21.02;;;7.00;99.90;;;;;;5113782;28;20494;-67
2022/11/14 00:39:34;;;;;;;49.78;21.63;;;7.10;99.90;;;;;;5113021;28;20078;-66
2022/11/14 00:41:59;;;;;;;47.13;21.10;;;6.80;99.90;;;;;;5114036;28;20479;-67
2022/11/14 00:44:25;;;;;;;42.97;21.10;;;6.60;99.90;;;;;;5114026;28;20113;-67
2022/11/14 00:46:51;;;;;;;48.08;22.27;;;7.10;99.90;;;;;;5114131;28;20498;-67
2022/11/14 00:49:16;;;;;;;50.17;23.08;;;6.70;99.90;;;;;;5113834;28;20047;-66
2022/11/14 00:51:42;;;;;;;46.17;22.20;;;6.90;99.90;;;;;;5112506;28;20050;-67
2022/11/14 00:54:07;;;;;;;48.15;22.83;;;7.10;99.90;;;;;;5112518;28;20049;-67
2022/11/14 00:56:33;;;;;;;49.95;22.55;;;6.70;99.90;;;;;;5113987;28;20079;-67
2022/11/14 00:58:59;;;;;;;50.85;24.33;;;7.10;99.90;;;;;;5113640;28;20043;-66
2022/11/14 01:01:25;;;;;;;47.75;23.70;;;7.20;99.90;;;;;;5113601;28;20048;-67
2022/11/14 01:03:51;;;;;;;51.42;23.52;;;7.00;99.90;;;;;;5113895;28;20040;-66
2022/11/14 01:06:17;;;;;;;46.42;22.52;;;7.00;99.90;;;;;;5113315;28;20416;-67
2022/11/14 01:08:43;;;;;;;48.40;22.45;;;;;;;;;;5113508;28;20058;-66
2022/11/14 01:11:12;;;;;;;45.88;22.52;;;6.90;99.90;;;;;;5113048;28;20070;-66
2022/11/14 01:13:38;;;;;;;50.42;22.98;;;;;;;;;;5113380;28;20464;-66
2022/11/14 01:16:04;;;;;;;46.00;23.33;;;7.10;99.90;;;;;;5113396;28;20130;-66
2022/11/14 01:18:30;;;;;;;54.28;25.35;;;7.20;99.90;;;;;;5113405;28;20096;-67
2022/11/14 01:20:56;;;;;;;48.78;25.00;;;7.10;99.90;;;;;;5113088;28;20044;-66
2022/11/14 01:23:22;;;;;;;50.78;24.20;;;7.20;99.90;;;;;;5113278;28;20036;-66
2022/11/14 01:25:47;;;;;;;52.28;24.92;;;7.20;99.90;;;;;;5113359;28;20047;-66
2022/11/14 01:28:15;;;;;;;52.50;25.38;;;7.10;99.90;;;;;;5112095;28;20047;-67
2022/11/14 01:30:42;;;;;;;52.53;24.48;;;7.20;99.90;;;;;;5113285;28;20087;-66
2022/11/14 01:33:08;;;;;;;52.50;26.52;;;7.40;99.90;;;;;;5113145;28;20361;-66
2022/11/14 01:35:34;;;;;;;;;;;7.20;99.90;;;;;;5113401;28;20051;-67
2022/11/14 01:38:00;;;;;;;56.67;27.15;;;7.10;99.90;;;;;;5112869;28;20432;-66
2022/11/14 01:40:26;;;;;;;56.40;26.42;;;7.20;99.90;;;;;;5113173;28;20048;-66
2022/11/14 01:43:17;;;;;;;58.10;28.60;;;7.10;99.90;;;;;;5112718;28;20060;-67
2022/11/14 01:45:57;;;;;;;59.67;28.48;;;7.40;99.90;;;;;;5113072;28;20102;-66
2022/11/14 01:48:39;;;;;;;64.22;31.30;;;7.20;99.90;;;;;;5112811;28;20050;-67
2022/11/14 01:51:12;;;;;;;64.78;30.55;;;7.10;99.90;;;;;;5113007;28;20475;-67
2022/11/14 01:53:38;;;;;;;59.58;30.90;;;7.10;99.90;;;;;;5112033;28;20047;-66
2022/11/14 01:56:07;;;;;;;60.03;31.35;;;7.20;99.90;;;;;;5113069;28;20070;-67
2022/11/14 01:58:35;;;;;;;66.20;32.92;;;7.00;99.90;;;;;;5112974;28;20786;-67
2022/11/14 02:01:02;;;;;;;62.92;32.97;;;7.00;99.90;;;;;;5112881;28;20048;-67
2022/11/14 02:03:28;;;;;;;69.70;33.60;;;7.00;99.90;;;;;;5112733;28;20040;-66
2022/11/14 02:05:54;;;;;;;;;;;6.90;99.90;;;;;;5113350;28;20059;-66
2022/11/14 02:08:21;;;;;;;68.93;35.25;;;7.20;99.90;;;;;;5112888;28;19920;-66
2022/11/14 02:10:47;;;;;;;67.18;33.90;;;7.20;99.90;;;;;;5112881;28;20054;-66
2022/11/14 02:13:13;;;;;;;72.15;36.72;;;7.20;99.90;;;;;;5112821;28;20047;-66
2022/11/14 02:15:39;;;;;;;65.70;34.92;;;7.00;99.90;;;;;;5112855;28;20109;-67
2022/11/14 02:18:05;;;;;;;70.38;36.03;;;6.90;99.90;;;;;;5112571;28;20051;-66
2022/11/14 02:20:35;;;;;;;71.88;37.42;;;7.10;99.90;;;;;;5111648;28;20047;-66
2022/11/14 02:23:01;;;;;;;76.90;37.92;;;6.90;99.90;;;;;;5114826;28;20130;-67
2022/11/14 02:25:27;;;;;;;76.03;37.97;;;7.10;99.90;;;;;;5115377;28;20105;-66
2022/11/14 02:27:54;;;;;;;74.10;37.05;;;7.00;99.90;;;;;;5116609;28;20043;-66
2022/11/14 02:30:22;;;;;;;77.35;37.97;;;6.90;99.90;;;;;;5116541;28;20087;-67
2022/11/14 02:32:48;;;;;;;78.43;38.70;;;6.90;99.90;;;;;;5116300;28;20088;-66
2022/11/14 02:35:13;;;;;;;77.15;38.30;;;7.10;99.90;;;;;;5116393;28;20550;-66
2022/11/14 02:37:39;;;;;;;80.05;39.55;;;6.70;99.90;;;;;;5115413;28;20159;-68
2022/11/14 02:40:06;;;;;;;80.38;39.83;;;6.80;99.90;;;;;;5116674;28;20043;-66
2022/11/14 02:42:31;;;;;;;80.43;40.63;;;6.90;99.90;;;;;;5116045;28;20048;-66
2022/11/14 02:44:57;;;;;;;78.40;40.22;;;7.00;99.90;;;;;;5114897;28;20063;-67
2022/11/14 02:47:26;;;;;;;80.50;38.33;;;7.00;99.90;;;;;;5114713;28;20058;-66
2022/11/14 02:49:52;;;;;;;78.65;38.50;;;7.00;99.90;;;;;;5116125;27;20105;-66
2022/11/14 02:52:18;;;;;;;86.18;39.00;;;;;;;;;;5116087;28;20047;-66
2022/11/14 02:54:44;;;;;;;82.53;39.53;;;;;;;;;;5115961;28;20044;-68
2022/11/14 02:57:10;;;;;;;90.63;39.33;;;7.00;99.90;;;;;;5116056;28;20079;-66
2022/11/14 02:59:35;;;;;;;82.97;40.17;;;7.00;99.90;;;;;;5116286;28;20467;-67
2022/11/14 03:02:01;;;;;;;83.82;39.67;;;7.00;99.90;;;;;;5114470;28;20047;-67
2022/11/14 03:04:27;;;;;;;88.50;40.90;;;6.90;99.90;;;;;;5115908;28;20035;-66
2022/11/14 03:06:52;;;;;;;86.38;38.63;;;7.00;99.90;;;;;;5115574;28;20099;-67
2022/11/14 03:09:19;;;;;;;84.97;39.58;;;;;;;;;;5115778;28;20054;-66
2022/11/14 03:11:44;;;;;;;88.38;41.00;;;7.30;99.90;;;;;;5115790;28;20580;-67
2022/11/14 03:14:10;;;;;;;88.57;39.42;;;6.80;99.90;;;;;;5115604;28;20093;-66
2022/11/14 03:16:36;;;;;;;79.00;38.25;;;;;;;;;;5114350;28;20039;-67
2022/11/14 03:19:02;;;;;;;85.72;39.33;;;7.10;99.90;;;;;;5115598;28;20043;-66
2022/11/14 03:21:28;;;;;;;83.10;37.30;;;6.60;99.90;;;;;;5115519;28;20043;-67
2022/11/14 03:23:53;;;;;;;85.25;39.90;;;6.90;99.90;;;;;;5115792;28;20123;-66
2022/11/14 03:26:19;;;;;;;83.78;39.58;;;;;;;;;;5115140;28;20051;-68
2022/11/14 03:28:45;;;;;;;83.22;39.63;;;6.80;99.90;;;;;;5115436;28;20047;-66
2022/11/14 03:31:13;;;;;;;83.75;39.05;;;7.10;99.90;;;;;;5115105;28;20040;-67
2022/11/14 03:33:39;;;;;;;81.32;37.75;;;6.80;99.90;;;;;;5114925;28;20043;-66
2022/11/14 03:36:05;;;;;;;80.35;37.50;;;7.20;99.90;;;;;;5115315;28;20534;-68
2022/11/14 03:38:32;;;;;;;81.13;39.35;;;7.00;99.90;;;;;;5115245;28;20086;-66
2022/11/14 03:40:58;;;;;;;;;;;;;;;;;;5114408;28;20126;-66
2022/11/14 03:43:24;;;;;;;79.63;37.90;;;7.00;99.90;;;;;;5115035;28;19920;-66
2022/11/14 03:45:49;;;;;;;80.40;37.40;;;7.00;99.90;;;;;;5114872;28;20056;-68
2022/11/14 03:48:15;;;;;;;78.72;40.20;;;7.10;99.90;;;;;;5113848;28;20062;-67
2022/11/14 03:50:42;;;;;;;78.10;37.75;;;7.20;99.90;;;;;;5114770;28;20421;-67
2022/11/14 03:53:08;;;;;;;73.25;37.65;;;;;;;;;;5114879;28;20054;-66
2022/11/14 03:55:33;;;;;;;75.47;36.53;;;7.20;99.90;;;;;;5114834;28;20050;-66
2022/11/14 03:57:59;;;;;;;80.78;37.90;;;6.90;99.90;;;;;;5114836;28;20056;-67
2022/11/14 04:00:27;;;;;;;83.68;38.17;;;7.40;99.90;;;;;;5114508;28;20095;-67
2022/11/14 04:02:54;;;;;;;78.70;38.28;;;7.10;99.90;;;;;;5113616;28;20093;-66
2022/11/14 04:05:21;;;;;;;80.72;39.08;;;7.00;99.90;;;;;;5114705;28;20054;-67
2022/11/14 04:07:46;;;;;;;80.25;39.13;;;7.10;99.90;;;;;;5114615;28;20070;-68
2022/11/14 04:10:12;;;;;;;79.82;38.08;;;7.30;99.90;;;;;;5114647;28;20114;-67
2022/11/14 04:12:38;;;;;;;76.72;37.72;;;7.00;99.90;;;;;;5114598;27;20479;-66
2022/11/14 04:15:04;;;;;;;76.53;37.08;;;;;;;;;;5095928;28;20054;-67
2022/11/14 04:17:30;;;;;;;;;;;7.20;99.90;;;;;;5114928;28;20087;-68
2022/11/14 04:19:55;;;;;;;73.18;36.60;;;7.20;99.90;;;;;;5114419;28;20320;-67
2022/11/14 04:22:22;;;;;;;75.75;35.47;;;;;;;;;;5113180;28;20368;-67
2022/11/14 04:24:47;;;;;;;73.90;34.50;;;6.90;99.90;;;;;;5114282;28;20039;-67
2022/11/14 04:27:13;;;;;;;77.85;36.15;;;7.20;99.90;;;;;;5114450;28;20130;-67
2022/11/14 04:29:39;;;;;;;72.40;36.28;;;7.00;99.90;;;;;;5113896;28;20047;-66
2022/11/14 04:32:04;;;;;;;77.00;36.50;;;7.10;99.90;;;;;;5113211;28;20040;-66
2022/11/14 04:34:30;;;;;;;70.88;36.22;;;7.10;99.90;;;;;;5114028;28;20115;-68
2022/11/14 04:36:56;;;;;;;75.55;37.67;;;6.80;99.90;;;;;;5112842;28;20040;-69
2022/11/14 04:39:21;;;;;;;72.45;37.38;;;6.90;99.90;;;;;;5114027;28;20050;-67
2022/11/14 04:41:47;;;;;;;78.90;38.10;;;7.00;99.90;;;;;;5114165;28;20043;-66
2022/11/14 04:44:13;;;;;;;69.20;36.22;;;7.10;99.90;;;;;;5112444;28;20480;-67
2022/11/14 04:46:38;;;;;;;78.55;40.13;;;7.20;99.90;;;;;;5112479;28;20206;-66
2022/11/14 04:49:04;;;;;;;72.40;36.03;;;7.10;99.90;;;;;;5112595;28;20046;-67
2022/11/14 04:51:30;;;;;;;73.72;37.22;;;;;;;;;;5113707;28;20047;-66
2022/11/14 04:53:56;;;;;;;72.28;35.70;;;6.80;99.90;;;;;;5113651;28;20051;-66
2022/11/14 04:56:24;;;;;;;70.55;35.47;;;7.40;99.90;;;;;;5113715;28;20127;-67
2022/11/14 04:58:49;;;;;;;75.47;35.75;;;6.90;99.90;;;;;;5113392;28;20086;-66
2022/11/14 05:01:15;;;;;;;72.53;35.83;;;;;;;;;;5113574;28;20086;-66
2022/11/14 05:03:41;;;;;;;72.65;36.13;;;6.80;99.90;;;;;;5113628;28;20061;-66
2022/11/14 05:06:07;;;;;;;75.55;38.03;;;;;;;;;;5113691;28;20492;-66
2022/11/14 05:08:33;;;;;;;77.20;36.22;;;6.80;99.90;;;;;;5113523;28;20136;-66
2022/11/14 05:10:59;;;;;;;71.15;37.95;;;7.00;99.90;;;;;;5113470;28;20140;-67
2022/11/14 05:13:25;;;;;;;72.22;36.78;;;;;;;;;;5112882;28;20131;-69
2022/11/14 05:15:51;;;;;;;;;;;6.80;99.90;;;;;;5113967;28;20058;-67
2022/11/14 05:18:16;;;;;;;70.68;36.10;;;6.90;99.90;;;;;;5113437;28;19921;-66
2022/11/14 05:20:42;;;;;;;70.40;36.03;;;7.10;99.90;;;;;;5113420;28;20088;-66
2022/11/14 05:23:19;;;;;;;72.47;38.17;;;7.00;99.90;;;;;;5113653;28;20053;-65
2022/11/14 05:25:44;;;;;;;73.63;38.53;;;7.00;99.90;;;;;;5113146;28;20167;-66
2022/11/14 05:28:10;;;;;;;74.65;40.03;;;7.00;99.90;;;;;;5113411;28;20492;-67
2022/11/14 05:30:35;;;;;;;77.38;38.67;;;6.70;99.90;;;;;;5112270;28;20055;-67
2022/11/14 05:33:01;;;;;;;77.93;39.13;;;6.90;99.90;;;;;;5113293;28;20436;-67
2022/11/14 05:35:27;;;;;;;79.38;39.90;;;7.00;99.90;;;;;;5113136;28;20131;-68
2022/11/14 05:37:52;;;;;;;79.70;39.47;;;6.90;99.90;;;;;;5112186;28;20044;-66
2022/11/14 05:40:18;;;;;;;78.13;39.67;;;;;;;;;;5112870;28;20043;-66
2022/11/14 05:42:44;;;;;;;76.85;40.00;;;6.90;99.90;;;;;;5113136;28;20079;-67
2022/11/14 05:45:10;;;;;;;89.38;41.65;;;7.10;99.90;;;;;;5113239;28;20471;-67
2022/11/14 05:47:35;;;;;;;81.03;39.45;;;6.90;99.90;;;;;;5112128;28;20594;-66
2022/11/14 05:50:02;;;;;;;76.18;38.80;;;7.00;99.90;;;;;;5113090;28;20047;-70
2022/11/14 05:52:28;;;;;;;76.68;38.92;;;6.60;99.90;;;;;;5113079;28;20377;-66
2022/11/14 05:54:53;;;;;;;74.53;38.55;;;6.60;99.90;;;;;;5111099;28;20104;-66
2022/11/14 05:57:19;;;;;;;74.07;38.95;;;6.80;99.90;;;;;;5115585;28;20051;-66
2022/11/14 05:59:44;;;;;;;68.50;36.30;;;6.90;99.90;;;;;;5116135;28;20086;-66
2022/11/14 06:02:10;;;;;;;71.85;35.42;;;6.70;99.90;;;;;;5116788;28;20082;-66
2022/11/14 06:04:36;;;;;;;70.88;37.70;;;6.80;99.90;;;;;;5117096;28;20051;-67
2022/11/14 06:07:01;;;;;;;74.97;37.40;;;6.80;99.90;;;;;;5117112;28;20405;-67
2022/11/14 06:09:27;;;;;;;71.80;36.78;;;6.70;99.90;;;;;;5116691;28;20047;-67
2022/11/14 06:11:53;;;;;;;71.10;37.95;;;6.70;99.90;;;;;;5115684;28;20039;-67
2022/11/14 06:14:18;;;;;;;71.53;36.78;;;6.80;99.90;;;;;;5116841;28;20384;-67
2022/11/14 06:16:44;;;;;;;66.53;36.05;;;6.70;99.90;;;;;;5115887;28;20379;-66
2022/11/14 06:19:10;;;;;;;70.15;36.40;;;7.00;99.90;;;;;;5116723;28;20083;-66
2022/11/14 06:21:35;;;;;;;69.72;35.58;;;6.60;99.90;;;;;;5115581;28;20051;-67
2022/11/14 06:24:01;;;;;;;70.13;35.03;;;;;;;;;;5116417;28;20047;-65
2022/11/14 06:26:29;;;;;;;71.40;36.83;;;6.80;99.90;;;;;;5116624;28;20152;-67
2022/11/14 06:28:55;;;;;;;73.95;37.60;;;6.70;99.90;;;;;;5116597;28;20047;-66
2022/11/14 06:31:22;;;;;;;81.35;34.95;;;6.60;99.90;;;;;;5116535;28;20096;-66
2022/11/14 06:33:48;;;;;;;75.20;36.10;;;6.80;99.90;;;;;;5115389;28;20066;-66
2022/11/14 06:36:13;;;;;;;70.53;36.38;;;6.70;99.90;;;;;;5116474;28;20039;-66
2022/11/14 06:38:40;;;;;;;76.65;36.53;;;6.70;99.90;;;;;;5116141;28;20453;-67
2022/11/14 06:41:07;;;;;;;70.63;33.70;;;6.60;99.90;;;;;;5116402;28;20055;-67
2022/11/14 06:43:38;;;;;;;72.00;36.92;;;6.80;99.90;;;;;;5116080;28;20051;-67
2022/11/14 06:46:05;;;;;;;71.28;35.47;;;6.80;99.90;;;;;;5116256;28;20055;-66
2022/11/14 06:48:31;;;;;;;73.15;35.88;;;6.60;99.90;;;;;;5116245;28;20044;-66
2022/11/14 06:50:57;;;;;;;75.25;39.53;;;;;;;;;;5116481;28;20104;-66
2022/11/14 06:53:24;;;;;;;79.50;39.15;;;6.60;99.90;;;;;;5115789;28;20092;-66
2022/11/14 06:56:00;;;;;;;76.97;37.75;;;6.50;99.90;;;;;;5116082;28;20048;-66
2022/11/14 07:04:17;;;;;;;79.07;38.72;;;;;;;;;;5152216;27;1259321;-67
2022/11/14 07:06:43;;;;;;;77.72;38.67;;;6.50;99.90;;;;;;5172640;27;20058;-65
2022/11/14 07:09:09;;;;;;;80.03;37.03;;;6.70;99.90;;;;;;5172329;27;20046;-65
2022/11/14 07:11:36;;;;;;;76.82;38.00;;;6.50;99.90;;;;;;5172526;27;20051;-65
2022/11/14 07:14:03;;;;;;;78.30;37.60;;;6.50;99.90;;;;;;5172567;27;20046;-68
2022/11/14 07:16:34;;;;;;;79.65;36.72;;;7.60;99.90;;;;;;5172551;27;20053;-66
2022/11/14 07:19:01;;;;;;;81.28;37.80;;;6.90;99.90;;;;;;5171893;27;20381;-65
2022/11/14 07:21:29;;;;;;;84.88;39.15;;;6.80;99.90;;;;;;5172154;27;20073;-65
2022/11/14 07:23:55;;;;;;;81.88;36.85;;;6.60;99.90;;;;;;5171978;27;20034;-67
2022/11/14 07:26:21;;;;;;;85.20;39.53;;;6.40;99.90;;;;;;5162839;27;20042;-65
2022/11/14 07:28:47;;;;;;;80.13;37.63;;;6.30;99.90;;;;;;5170986;27;20046;-65
2022/11/14 07:31:15;;;;;;;79.63;38.45;;;7.30;99.90;;;;;;5164189;27;20042;-65
2022/11/14 07:33:42;;;;;;;75.28;37.08;;;6.70;99.90;;;;;;5163846;27;20072;-73
2022/11/14 07:36:09;;;;;;;83.00;37.83;;;6.40;99.90;;;;;;5168712;27;20042;-68
2022/11/14 07:38:36;;;;;;;84.68;39.13;;;6.40;99.90;;;;;;5170514;27;20047;-66
2022/11/14 07:41:06;;;;;;;81.20;39.20;;;6.90;99.90;;;;;;5153289;27;20039;-66
2022/11/14 07:43:31;;;;;;;84.55;39.20;;;7.20;99.90;;;;;;5150565;27;20039;-66
2022/11/14 07:46:05;;;;;;;81.60;37.63;;;6.60;99.90;;;;;;5150944;27;20054;-66
2022/11/14 07:48:31;;;;;;;80.10;38.53;;;6.40;99.90;;;;;;5141241;27;20046;-66
2022/11/14 07:50:59;;;;;;;77.07;34.42;;;6.90;99.90;;;;;;5170469;27;20046;-66
2022/11/14 07:53:25;;;;;;;77.63;35.08;;;6.90;99.90;;;;;;5170978;27;20471;-69
2022/11/14 07:55:51;;;;;;;85.10;38.10;;;7.20;99.90;;;;;;5169925;27;20121;-66
2022/11/14 07:58:16;;;;;;;83.90;36.55;;;6.90;99.90;;;;;;5169810;27;20138;-66
2022/11/14 08:00:42;;;;;;;83.93;34.67;;;6.90;99.90;;;;;;5171553;27;20767;-65
2022/11/14 08:03:08;;;;;;;75.72;36.47;;;6.70;99.90;;;;;;5152270;27;20643;-68
2022/11/14 08:05:35;;;;;;;79.25;37.22;;;6.70;99.90;;;;;;5171084;27;20076;-66
2022/11/14 08:08:00;;;;;;;81.35;38.83;;;6.70;99.90;;;;;;5171147;27;20514;-67
2022/11/14 08:10:26;;;;;;;84.00;37.40;;;6.70;99.90;;;;;;5171371;27;20134;-66
2022/11/14 08:12:59;;;;;;;80.88;36.47;;;6.70;99.90;;;;;;5171317;27;20053;-67
2022/11/14 08:15:25;;;;;;;79.53;35.63;;;6.70;99.90;;;;;;5158791;27;20086;-67
2022/11/14 08:17:51;;;;;;;79.13;36.72;;;6.40;99.90;;;;;;5157363;27;20086;-66
2022/11/14 08:20:16;;;;;;;77.05;34.55;;;7.20;99.90;;;;;;5157073;27;20135;-66
2022/11/14 08:22:42;;;;;;;81.07;37.10;;;6.40;99.90;;;;;;5157169;27;20091;-66
2022/11/14 08:25:08;;;;;;;80.65;37.20;;;6.70;99.90;;;;;;5157207;27;20103;-66
2022/11/14 08:27:34;;;;;;;85.85;39.13;;;6.80;99.90;;;;;;5157122;27;20049;-66
2022/11/14 08:29:59;;;;;;;82.97;37.72;;;6.70;99.90;;;;;;5157111;27;20047;-67
2022/11/14 08:32:25;;;;;;;82.63;37.35;;;6.50;99.90;;;;;;5157053;27;20053;-67
2022/11/14 08:34:50;;;;;;;83.70;38.58;;;6.80;99.90;;;;;;5156778;27;20054;-66
2022/11/14 08:37:16;;;;;;;84.43;36.72;;;6.50;99.90;;;;;;5138752;27;20053;-66
2022/11/14 08:39:42;;;;;;;85.95;37.70;;;7.00;99.90;;;;;;5156944;27;20050;-66
2022/11/14 08:42:08;;;;;;;84.65;36.95;;;6.60;99.90;;;;;;5156807;27;20133;-66
2022/11/14 08:44:33;;;;;;;79.47;36.88;;;6.60;99.90;;;;;;5156861;27;20503;-67
2022/11/14 08:46:59;;;;;;;79.40;38.33;;;6.60;99.90;;;;;;5138583;27;20091;-66
2022/11/14 08:49:25;;;;;;;82.30;38.10;;;6.50;99.90;;;;;;5156420;27;20062;-66
2022/11/14 08:51:51;;;;;;;;;;;7.50;99.90;;;;;;5157000;27;20046;-66
2022/11/14 08:54:17;;;;;;;79.00;35.63;;;7.60;99.90;;;;;;5156648;27;19919;-66
2022/11/14 08:56:43;;;;;;;75.00;36.90;;;7.10;99.90;;;;;;5155982;27;20101;-66
2022/11/14 08:59:09;;;;;;;77.60;36.70;;;7.00;99.90;;;;;;5156572;27;20053;-66
2022/11/14 09:01:34;;;;;;;79.50;36.92;;;6.90;99.90;;;;;;5156528;27;20045;-65
2022/11/14 09:04:00;;;;;;;75.15;35.03;;;6.80;99.90;;;;;;5155972;27;20058;-66
2022/11/14 09:06:26;;;;;;;69.60;33.25;;;7.00;99.90;;;;;;5156319;27;20054;-66
2022/11/14 09:08:52;;;;;;;76.57;36.60;;;6.80;99.90;;;;;;5156335;27;20142;-66
2022/11/14 09:11:17;;;;;;;72.85;36.55;;;6.60;99.90;;;;;;5156342;27;20038;-66
2022/11/14 09:13:43;;;;;;;73.25;35.85;;;7.10;99.90;;;;;;5156238;27;20129;-65
2022/11/14 09:16:09;;;;;;;79.88;36.67;;;6.80;99.90;;;;;;5156167;27;20054;-67
2022/11/14 09:18:35;;;;;;;78.55;38.08;;;6.80;99.90;;;;;;5155840;27;20097;-66
2022/11/14 09:21:02;;;;;;;76.03;35.75;;;7.10;99.90;;;;;;5137522;27;20355;-65
2022/11/14 09:23:28;;;;;;;75.50;35.65;;;7.40;99.90;;;;;;5155932;27;20043;-66
2022/11/14 09:25:55;;;;;;;70.60;34.28;;;7.40;99.90;;;;;;5154950;27;20089;-67
2022/11/14 09:28:22;;;;;;;71.18;36.20;;;7.10;99.90;;;;;;5155587;27;20394;-67
2022/11/14 09:30:48;;;;;;;77.57;36.85;;;7.30;99.90;;;;;;5155917;27;20053;-66
2022/11/14 09:33:14;;;;;;;71.88;35.67;;;7.00;99.90;;;;;;5155552;27;20055;-67
2022/11/14 09:35:40;;;;;;;73.78;34.40;;;7.20;99.90;;;;;;5155850;27;20042;-69
2022/11/14 09:38:08;;;;;;;71.70;35.83;;;7.70;99.90;;;;;;5155765;27;20088;-67
2022/11/14 09:41:00;;;;;;;70.25;35.85;;;7.20;99.90;;;;;;5155365;27;20491;-67
2022/11/14 09:43:37;;;;;;;71.63;35.45;;;7.10;99.90;;;;;;5140462;27;20088;-66
2022/11/14 09:46:10;;;;;;;66.32;35.00;;;6.90;99.90;;;;;;5155642;27;20126;-66
2022/11/14 09:48:36;;;;;;;75.25;37.08;;;7.10;99.90;;;;;;5155331;27;20466;-67
2022/11/14 09:51:09;;;;;;;67.55;35.08;;;8.00;99.90;;;;;;5155497;27;20049;-66
2022/11/14 09:53:58;;;;;;;72.90;35.83;;;7.20;99.90;;;;;;5155358;27;20050;-67
2022/11/14 09:56:25;;;;;;;65.22;35.20;;;7.30;99.90;;;;;;5155414;27;20065;-66
2022/11/14 09:58:54;;;;;;;73.28;35.35;;;8.40;99.90;;;;;;5155381;27;20391;-66
2022/11/14 10:01:57;;;;;;;68.13;34.13;;;7.40;99.90;;;;;;5155347;27;20110;-66
2022/11/14 10:04:37;;;;;;;67.18;34.15;;;6.90;99.90;;;;;;5155329;27;20057;-67
2022/11/14 10:07:16;;;;;;;66.40;34.13;;;7.20;99.90;;;;;;5155123;27;20058;-66
2022/11/14 10:10:02;;;;;;;64.18;34.38;;;8.70;99.90;;;;;;5155191;27;20054;-66
2022/11/14 10:12:53;;;;;;;64.60;33.90;;;7.10;99.90;;;;;;5155217;27;20126;-67
2022/11/14 10:15:41;;;;;;;68.93;36.40;;;7.60;99.90;;;;;;5155027;27;20362;-66
2022/11/14 10:18:22;;;;;;;63.45;34.83;;;8.00;99.90;;;;;;5155050;27;20046;-67
2022/11/14 10:20:54;;;;;;;64.13;33.33;;;8.20;99.90;;;;;;5154998;27;20054;-66
2022/11/14 10:23:34;;;;;;;61.65;32.92;;;9.20;99.90;;;;;;5154912;27;20046;-68
2022/11/14 10:26:28;;;;;;;61.58;32.28;;;8.10;99.90;;;;;;5154607;27;20452;-68
2022/11/14 10:28:57;;;;;;;62.55;33.00;;;8.20;99.90;;;;;;5154793;27;20039;-66
2022/11/14 10:31:46;;;;;;;62.83;34.10;;;8.20;99.90;;;;;;5154478;27;20133;-66
2022/11/14 10:34:11;;;;;;;65.28;34.28;;;8.20;99.90;;;;;;5154798;27;20444;-66
2022/11/14 10:37:11;;;;;;;67.40;35.03;;;8.30;99.90;;;;;;5154693;27;20079;-66
2022/11/14 10:39:45;;;;;;;66.88;33.67;;;8.60;99.90;;;;;;5154607;27;20078;-68
2022/11/14 10:42:18;;;;;;;60.92;32.28;;;8.40;99.90;;;;;;5154523;27;20051;-66
2022/11/14 10:44:56;;;;;;;63.22;33.42;;;8.60;99.90;;;;;;5154367;27;20076;-66
2022/11/14 10:47:23;;;;;;;64.13;34.00;;;8.50;99.90;;;;;;5154624;27;20039;-66
2022/11/14 10:49:54;;;;;;;63.85;34.70;;;8.10;99.90;;;;;;5154589;27;20144;-66
2022/11/14 10:52:35;;;;;;;62.50;33.28;;;8.60;99.90;;;;;;5154571;27;20043;-67
2022/11/14 10:55:27;;;;;;;61.25;33.90;;;9.40;99.90;;;;;;5154524;27;20042;-67
2022/11/14 10:57:53;;;;;;;64.68;35.05;;;8.30;99.90;;;;;;5150475;27;20055;-66
2022/11/14 11:00:21;;;;;;;59.85;32.55;;;8.90;99.90;;;;;;5154181;27;20359;-66
2022/11/14 11:02:53;;;;;;;65.85;34.38;;;8.30;99.90;;;;;;5135653;27;20070;-67
2022/11/14 11:05:22;;;;;;;60.08;32.03;;;8.30;99.90;;;;;;5154452;27;20116;-66
2022/11/14 11:13:49;;;;;;;62.22;35.40;;;9.80;99.90;;;;;;5154373;27;20050;-67
2022/11/14 11:16:21;;;;;;;56.70;31.15;;;8.30;99.90;;;;;;5154264;27;20042;-66
2022/11/14 11:18:46;;;;;;;58.83;31.75;;;8.60;99.90;;;;;;5154246;27;20454;-67
2022/11/14 11:21:15;;;;;;;59.22;31.40;;;9.00;99.90;;;;;;5153949;27;20126;-66
2022/11/14 11:23:52;;;;;;;54.50;31.85;;;9.00;99.90;;;;;;5154154;27;20049;-68
2022/11/14 11:26:25;;;;;;;53.65;31.05;;;9.20;99.90;;;;;;5154263;27;20086;-67
2022/11/14 11:29:09;;;;;;;53.05;30.55;;;9.20;99.90;;;;;;5153800;27;20440;-67
2022/11/14 11:31:54;;;;;;;57.22;31.70;;;9.80;99.90;;;;;;5154081;27;20505;-67
2022/11/14 11:34:33;;;;;;;52.63;31.48;;;9.00;99.90;;;;;;5154020;27;20500;-66
2022/11/14 11:37:19;;;;;;;54.33;31.80;;;10.10;99.90;;;;;;5154037;27;20484;-67
2022/11/14 11:39:56;;;;;;;54.58;30.83;;;9.10;99.90;;;;;;5154069;27;20083;-66
2022/11/14 11:42:44;;;;;;;52.75;31.05;;;9.50;99.90;;;;;;5153966;27;20047;-66
2022/11/14 11:45:17;;;;;;;56.08;31.75;;;9.20;99.90;;;;;;5153834;27;20116;-67
2022/11/14 11:47:54;;;;;;;57.90;32.00;;;9.30;99.90;;;;;;5153786;27;20510;-66
2022/11/14 11:50:20;;;;;;;;;;;8.90;99.90;;;;;;5156413;27;20130;-75
2022/11/14 11:52:55;;;;;;;54.95;30.85;;;8.70;99.90;;;;;;5149275;27;19919;-67
2022/11/14 11:55:25;;;;;;;50.95;30.38;;;8.80;99.90;;;;;;5156993;27;20055;-67
2022/11/14 11:58:01;;;;;;;53.95;32.45;;;8.70;99.90;;;;;;5156910;27;20051;-68
2022/11/14 12:00:27;;;;;;;56.80;31.35;;;8.80;99.90;;;;;;5157263;27;20043;-66
2022/11/14 12:02:53;;;;;;;;;;;8.80;99.90;;;;;;5157003;27;20542;-66
2022/11/14 12:05:25;;;;;;;55.63;32.78;;;8.60;99.90;;;;;;5156923;27;20009;-66
2022/11/14 12:08:08;;;;;;;52.15;32.47;;;9.00;99.90;;;;;;5156984;27;20061;-69
2022/11/14 12:10:38;;;;;;;58.10;33.25;;;8.60;99.90;;;;;;5156816;27;20054;-67
2022/11/14 12:13:22;;;;;;;54.53;31.23;;;8.60;99.90;;;;;;5135284;27;20066;-68
2022/11/14 12:16:13;;;;;;;58.60;33.35;;;8.60;99.90;;;;;;5137917;27;20050;-66
2022/11/14 12:19:21;;;;;;;56.03;31.98;;;8.60;99.90;;;;;;5156825;27;20412;-66
2022/11/14 12:22:08;;;;;;;60.83;33.55;;;8.40;99.90;;;;;;5156320;27;20050;-66
2022/11/14 12:25:00;;;;;;;55.53;32.45;;;8.50;99.90;;;;;;5156514;27;20042;-67
2022/11/14 12:27:50;;;;;;;57.38;31.52;;;8.20;99.90;;;;;;5147592;27;20049;-66
2022/11/14 12:30:22;;;;;;;54.40;31.75;;;9.00;99.90;;;;;;5155626;27;20388;-68
2022/11/14 12:33:00;;;;;;;54.90;31.60;;;9.10;99.90;;;;;;5155781;27;20043;-66
2022/11/14 12:35:33;;;;;;;49.35;30.52;;;9.90;99.90;;;;;;5155484;27;20047;-66
2022/11/14 12:38:04;;;;;;;48.58;29.83;;;10.00;99.90;;;;;;5155641;27;20050;-66
2022/11/14 12:40:34;;;;;;;51.38;30.38;;;9.80;99.90;;;;;;5156048;27;20065;-66
2022/11/14 12:43:01;;;;;;;51.00;30.95;;;10.00;99.90;;;;;;5156501;27;20123;-66
2022/11/14 12:45:39;;;;;;;50.38;28.40;;;11.00;99.90;;;;;;5156632;27;20050;-67
2022/11/14 12:48:22;;;;;;;50.05;29.42;;;10.90;99.90;;;;;;5156647;27;20051;-66
2022/11/14 12:50:48;;;;;;;51.90;28.38;;;10.60;99.90;;;;;;5156967;27;20038;-66
2022/11/14 12:53:37;;;;;;;48.25;29.73;;;10.60;99.90;;;;;;5156712;27;20038;-66
2022/11/14 12:56:30;;;;;;;47.17;28.83;;;10.70;99.90;;;;;;5143156;27;20062;-66
2022/11/14 12:58:59;;;;;;;50.92;29.23;;;10.50;99.90;;;;;;5156473;27;20471;-67
2022/11/14 13:01:39;;;;;;;48.05;30.23;;;11.40;99.90;;;;;;5156165;27;20099;-66
2022/11/14 13:04:32;;;;;;;47.97;30.13;;;10.80;99.90;;;;;;5156474;27;20055;-66
2022/11/14 13:06:58;;;;;;;48.08;30.45;;;11.00;99.90;;;;;;5156132;27;20470;-66